sensor_id;sensor_type;location;lat;lon;timestamp;P1;durP1;ratioP1;P2;durP2;ratioP2
35126;SDS011;21300;52.006;5.798;2022-08-20T00:02:22;8.27;;;6.03;;
35126;SDS011;21300;52.006;5.798;2022-08-20T00:04:49;8.32;;;6.05;;
35126;SDS011;21300;52.006;5.798;2022-08-20T00:07:15;9.55;;;6.35;;
35126;SDS011;21300;52.006;5.798;2022-08-20T00:09:41;9.95;;;7.35;;
35126;SDS011;21300;52.006;5.798;2022-08-20T00:12:08;7.65;;;6.25;;
35126;SDS011;21300;52.006;5.798;2022-08-20T00:14:34;9.77;;;6.93;;
35126;SDS011;21300;52.006;5.798;2022-08-20T00:17:01;8.50;;;6.20;;
35126;SDS011;21300;52.006;5.798;2022-08-20T00:19:28;8.65;;;7.13;;
35126;SDS011;21300;52.006;5.798;2022-08-20T00:21:54;8.20;;;6.97;;
35126;SDS011;21300;52.006;5.798;2022-08-20T00:24:21;6.85;;;6.15;;
35126;SDS011;21300;52.006;5.798;2022-08-20T00:26:46;7.32;;;6.05;;
35126;SDS011;21300;52.006;5.798;2022-08-20T00:29:12;8.15;;;5.45;;
35126;SDS011;21300;52.006;5.798;2022-08-20T00:31:38;9.00;;;5.38;;
35126;SDS011;21300;52.006;5.798;2022-08-20T00:34:03;7.97;;;6.13;;
35126;SDS011;21300;52.006;5.798;2022-08-20T00:36:29;8.55;;;6.43;;
35126;SDS011;21300;52.006;5.798;2022-08-20T00:38:54;9.25;;;6.55;;
35126;SDS011;21300;52.006;5.798;2022-08-20T00:41:23;8.20;;;6.70;;
35126;SDS011;21300;52.006;5.798;2022-08-20T00:43:51;11.13;;;7.70;;
35126;SDS011;21300;52.006;5.798;2022-08-20T00:46:29;10.68;;;7.90;;
35126;SDS011;21300;52.006;5.798;2022-08-20T00:48:56;9.07;;;7.60;;
35126;SDS011;21300;52.006;5.798;2022-08-20T00:51:28;12.00;;;8.43;;
35126;SDS011;21300;52.006;5.798;2022-08-20T00:54:03;11.98;;;8.50;;
35126;SDS011;21300;52.006;5.798;2022-08-20T00:56:35;12.57;;;8.18;;
35126;SDS011;21300;52.006;5.798;2022-08-20T00:59:03;9.75;;;7.70;;
35126;SDS011;21300;52.006;5.798;2022-08-20T01:01:34;8.30;;;6.20;;
35126;SDS011;21300;52.006;5.798;2022-08-20T01:03:59;9.63;;;6.57;;
35126;SDS011;21300;52.006;5.798;2022-08-20T01:06:25;8.55;;;6.65;;
35126;SDS011;21300;52.006;5.798;2022-08-20T01:08:52;8.40;;;6.88;;
35126;SDS011;21300;52.006;5.798;2022-08-20T01:11:18;10.70;;;6.90;;
35126;SDS011;21300;52.006;5.798;2022-08-20T01:13:54;9.75;;;8.38;;
35126;SDS011;21300;52.006;5.798;2022-08-20T01:16:22;8.38;;;7.13;;
35126;SDS011;21300;52.006;5.798;2022-08-20T01:18:53;10.70;;;6.72;;
35126;SDS011;21300;52.006;5.798;2022-08-20T01:21:21;10.00;;;7.70;;
35126;SDS011;21300;52.006;5.798;2022-08-20T01:26:29;8.60;;;6.00;;
35126;SDS011;21300;52.006;5.798;2022-08-20T01:29:06;8.70;;;6.72;;
35126;SDS011;21300;52.006;5.798;2022-08-20T01:31:39;8.07;;;6.95;;
35126;SDS011;21300;52.006;5.798;2022-08-20T01:34:08;8.10;;;7.00;;
35126;SDS011;21300;52.006;5.798;2022-08-20T01:36:36;9.75;;;8.05;;
35126;SDS011;21300;52.006;5.798;2022-08-20T01:39:06;9.88;;;7.13;;
35126;SDS011;21300;52.006;5.798;2022-08-20T01:44:35;9.57;;;7.43;;
35126;SDS011;21300;52.006;5.798;2022-08-20T01:47:14;12.77;;;9.15;;
35126;SDS011;21300;52.006;5.798;2022-08-20T01:49:46;11.52;;;7.80;;
35126;SDS011;21300;52.006;5.798;2022-08-20T01:52:35;10.90;;;7.97;;
35126;SDS011;21300;52.006;5.798;2022-08-20T01:55:22;9.98;;;7.68;;
35126;SDS011;21300;52.006;5.798;2022-08-20T01:57:48;8.88;;;7.47;;
35126;SDS011;21300;52.006;5.798;2022-08-20T02:00:14;9.27;;;7.60;;
35126;SDS011;21300;52.006;5.798;2022-08-20T02:02:43;9.25;;;7.28;;
35126;SDS011;21300;52.006;5.798;2022-08-20T02:05:08;9.35;;;6.88;;
35126;SDS011;21300;52.006;5.798;2022-08-20T02:07:35;10.60;;;7.43;;
35126;SDS011;21300;52.006;5.798;2022-08-20T02:10:03;10.65;;;8.35;;
35126;SDS011;21300;52.006;5.798;2022-08-20T02:12:30;9.13;;;7.63;;
35126;SDS011;21300;52.006;5.798;2022-08-20T02:14:56;11.85;;;7.57;;
35126;SDS011;21300;52.006;5.798;2022-08-20T02:17:22;10.90;;;8.00;;
35126;SDS011;21300;52.006;5.798;2022-08-20T02:19:50;10.13;;;7.43;;
35126;SDS011;21300;52.006;5.798;2022-08-20T02:24:55;11.95;;;7.20;;
35126;SDS011;21300;52.006;5.798;2022-08-20T02:27:21;8.77;;;7.20;;
35126;SDS011;21300;52.006;5.798;2022-08-20T02:29:47;10.93;;;8.02;;
35126;SDS011;21300;52.006;5.798;2022-08-20T02:32:13;10.82;;;7.88;;
35126;SDS011;21300;52.006;5.798;2022-08-20T02:34:39;10.05;;;8.13;;
35126;SDS011;21300;52.006;5.798;2022-08-20T02:37:05;10.75;;;7.32;;
35126;SDS011;21300;52.006;5.798;2022-08-20T02:39:31;9.75;;;7.70;;
35126;SDS011;21300;52.006;5.798;2022-08-20T02:41:58;9.82;;;7.60;;
35126;SDS011;21300;52.006;5.798;2022-08-20T02:44:24;11.10;;;7.50;;
35126;SDS011;21300;52.006;5.798;2022-08-20T02:46:49;10.30;;;7.22;;
35126;SDS011;21300;52.006;5.798;2022-08-20T02:49:16;11.27;;;8.02;;
35126;SDS011;21300;52.006;5.798;2022-08-20T02:51:43;10.20;;;7.05;;
35126;SDS011;21300;52.006;5.798;2022-08-20T02:54:09;9.65;;;7.68;;
35126;SDS011;21300;52.006;5.798;2022-08-20T02:56:35;11.13;;;8.52;;
35126;SDS011;21300;52.006;5.798;2022-08-20T02:59:01;12.50;;;8.65;;
35126;SDS011;21300;52.006;5.798;2022-08-20T03:01:27;12.65;;;8.75;;
35126;SDS011;21300;52.006;5.798;2022-08-20T03:06:37;12.13;;;9.13;;
35126;SDS011;21300;52.006;5.798;2022-08-20T03:09:03;14.27;;;9.23;;
35126;SDS011;21300;52.006;5.798;2022-08-20T03:11:29;15.18;;;10.48;;
35126;SDS011;21300;52.006;5.798;2022-08-20T03:13:56;12.32;;;9.60;;
35126;SDS011;21300;52.006;5.798;2022-08-20T03:16:21;14.48;;;9.82;;
35126;SDS011;21300;52.006;5.798;2022-08-20T03:18:47;14.00;;;10.88;;
35126;SDS011;21300;52.006;5.798;2022-08-20T03:21:13;14.88;;;11.30;;
35126;SDS011;21300;52.006;5.798;2022-08-20T03:23:39;18.70;;;12.52;;
35126;SDS011;21300;52.006;5.798;2022-08-20T03:26:06;16.55;;;11.00;;
35126;SDS011;21300;52.006;5.798;2022-08-20T03:28:34;13.35;;;10.75;;
35126;SDS011;21300;52.006;5.798;2022-08-20T03:30:59;15.52;;;10.52;;
35126;SDS011;21300;52.006;5.798;2022-08-20T03:33:26;12.45;;;10.35;;
35126;SDS011;21300;52.006;5.798;2022-08-20T03:35:53;16.15;;;10.77;;
35126;SDS011;21300;52.006;5.798;2022-08-20T03:38:19;15.38;;;11.15;;
35126;SDS011;21300;52.006;5.798;2022-08-20T03:40:47;14.15;;;11.25;;
35126;SDS011;21300;52.006;5.798;2022-08-20T03:43:13;18.10;;;13.63;;
35126;SDS011;21300;52.006;5.798;2022-08-20T03:45:40;20.33;;;13.65;;
35126;SDS011;21300;52.006;5.798;2022-08-20T03:48:09;18.98;;;13.20;;
35126;SDS011;21300;52.006;5.798;2022-08-20T03:50:37;18.65;;;13.10;;
35126;SDS011;21300;52.006;5.798;2022-08-20T03:53:06;19.50;;;14.15;;
35126;SDS011;21300;52.006;5.798;2022-08-20T03:55:36;19.73;;;13.30;;
35126;SDS011;21300;52.006;5.798;2022-08-20T03:58:03;20.50;;;13.68;;
35126;SDS011;21300;52.006;5.798;2022-08-20T04:00:39;16.38;;;12.00;;
35126;SDS011;21300;52.006;5.798;2022-08-20T04:03:07;15.73;;;12.00;;
35126;SDS011;21300;52.006;5.798;2022-08-20T04:05:35;14.60;;;10.95;;
35126;SDS011;21300;52.006;5.798;2022-08-20T04:08:04;16.23;;;11.32;;
35126;SDS011;21300;52.006;5.798;2022-08-20T04:10:54;16.90;;;11.27;;
35126;SDS011;21300;52.006;5.798;2022-08-20T04:13:21;16.92;;;11.77;;
35126;SDS011;21300;52.006;5.798;2022-08-20T04:15:48;15.23;;;11.07;;
35126;SDS011;21300;52.006;5.798;2022-08-20T04:18:15;15.55;;;11.70;;
35126;SDS011;21300;52.006;5.798;2022-08-20T04:20:44;14.15;;;9.35;;
35126;SDS011;21300;52.006;5.798;2022-08-20T04:23:10;13.70;;;9.10;;
35126;SDS011;21300;52.006;5.798;2022-08-20T04:25:38;16.50;;;10.45;;
35126;SDS011;21300;52.006;5.798;2022-08-20T04:28:05;16.52;;;10.25;;
35126;SDS011;21300;52.006;5.798;2022-08-20T04:30:33;14.13;;;9.30;;
35126;SDS011;21300;52.006;5.798;2022-08-20T04:32:59;13.82;;;9.63;;
35126;SDS011;21300;52.006;5.798;2022-08-20T04:35:25;16.08;;;10.35;;
35126;SDS011;21300;52.006;5.798;2022-08-20T04:38:01;13.70;;;9.95;;
35126;SDS011;21300;52.006;5.798;2022-08-20T04:40:30;12.40;;;8.88;;
35126;SDS011;21300;52.006;5.798;2022-08-20T04:43:15;15.30;;;9.35;;
35126;SDS011;21300;52.006;5.798;2022-08-20T04:45:40;12.65;;;9.52;;
35126;SDS011;21300;52.006;5.798;2022-08-20T04:48:06;14.88;;;9.65;;
35126;SDS011;21300;52.006;5.798;2022-08-20T04:50:33;13.75;;;10.80;;
35126;SDS011;21300;52.006;5.798;2022-08-20T04:53:01;14.50;;;10.27;;
35126;SDS011;21300;52.006;5.798;2022-08-20T04:55:31;14.50;;;10.43;;
35126;SDS011;21300;52.006;5.798;2022-08-20T04:58:04;14.55;;;10.45;;
35126;SDS011;21300;52.006;5.798;2022-08-20T05:00:32;13.60;;;9.30;;
35126;SDS011;21300;52.006;5.798;2022-08-20T05:02:58;14.13;;;10.32;;
35126;SDS011;21300;52.006;5.798;2022-08-20T05:05:23;11.38;;;9.43;;
35126;SDS011;21300;52.006;5.798;2022-08-20T05:07:50;12.90;;;9.55;;
35126;SDS011;21300;52.006;5.798;2022-08-20T05:10:17;12.25;;;10.32;;
35126;SDS011;21300;52.006;5.798;2022-08-20T05:12:43;14.63;;;9.65;;
35126;SDS011;21300;52.006;5.798;2022-08-20T05:15:10;13.68;;;9.57;;
35126;SDS011;21300;52.006;5.798;2022-08-20T05:17:40;14.35;;;9.50;;
35126;SDS011;21300;52.006;5.798;2022-08-20T05:20:09;12.45;;;9.77;;
35126;SDS011;21300;52.006;5.798;2022-08-20T05:22:42;13.73;;;10.30;;
35126;SDS011;21300;52.006;5.798;2022-08-20T05:25:08;12.25;;;8.80;;
35126;SDS011;21300;52.006;5.798;2022-08-20T05:27:34;14.27;;;8.90;;
35126;SDS011;21300;52.006;5.798;2022-08-20T05:30:01;13.73;;;9.85;;
35126;SDS011;21300;52.006;5.798;2022-08-20T05:32:31;12.32;;;9.57;;
35126;SDS011;21300;52.006;5.798;2022-08-20T05:34:57;14.48;;;9.82;;
35126;SDS011;21300;52.006;5.798;2022-08-20T05:37:25;10.77;;;9.02;;
35126;SDS011;21300;52.006;5.798;2022-08-20T05:39:51;15.23;;;9.25;;
35126;SDS011;21300;52.006;5.798;2022-08-20T05:42:17;13.23;;;8.93;;
35126;SDS011;21300;52.006;5.798;2022-08-20T05:44:43;13.85;;;9.23;;
35126;SDS011;21300;52.006;5.798;2022-08-20T05:47:10;12.18;;;8.85;;
35126;SDS011;21300;52.006;5.798;2022-08-20T05:49:36;10.35;;;8.82;;
35126;SDS011;21300;52.006;5.798;2022-08-20T05:52:02;12.23;;;8.55;;
35126;SDS011;21300;52.006;5.798;2022-08-20T05:54:29;12.85;;;8.63;;
35126;SDS011;21300;52.006;5.798;2022-08-20T05:56:55;12.43;;;9.60;;
35126;SDS011;21300;52.006;5.798;2022-08-20T05:59:21;13.13;;;8.57;;
35126;SDS011;21300;52.006;5.798;2022-08-20T06:01:48;14.23;;;9.23;;
35126;SDS011;21300;52.006;5.798;2022-08-20T06:04:14;12.75;;;9.13;;
35126;SDS011;21300;52.006;5.798;2022-08-20T06:06:53;11.93;;;8.75;;
35126;SDS011;21300;52.006;5.798;2022-08-20T06:09:23;12.98;;;9.30;;
35126;SDS011;21300;52.006;5.798;2022-08-20T06:11:49;11.85;;;8.45;;
35126;SDS011;21300;52.006;5.798;2022-08-20T06:14:15;11.80;;;9.35;;
35126;SDS011;21300;52.006;5.798;2022-08-20T06:16:42;14.30;;;9.07;;
35126;SDS011;21300;52.006;5.798;2022-08-20T06:19:08;13.80;;;9.50;;
35126;SDS011;21300;52.006;5.798;2022-08-20T06:21:37;11.68;;;9.25;;
35126;SDS011;21300;52.006;5.798;2022-08-20T06:24:03;13.18;;;9.02;;
35126;SDS011;21300;52.006;5.798;2022-08-20T06:26:30;11.88;;;9.15;;
35126;SDS011;21300;52.006;5.798;2022-08-20T06:28:58;10.18;;;9.02;;
35126;SDS011;21300;52.006;5.798;2022-08-20T06:31:25;14.57;;;8.82;;
35126;SDS011;21300;52.006;5.798;2022-08-20T06:33:51;13.35;;;9.40;;
35126;SDS011;21300;52.006;5.798;2022-08-20T06:36:24;14.65;;;9.75;;
35126;SDS011;21300;52.006;5.798;2022-08-20T06:38:53;12.80;;;9.32;;
35126;SDS011;21300;52.006;5.798;2022-08-20T06:41:20;13.52;;;9.23;;
35126;SDS011;21300;52.006;5.798;2022-08-20T06:43:46;11.27;;;8.38;;
35126;SDS011;21300;52.006;5.798;2022-08-20T06:46:15;13.25;;;8.25;;
35126;SDS011;21300;52.006;5.798;2022-08-20T06:48:44;11.40;;;9.10;;
35126;SDS011;21300;52.006;5.798;2022-08-20T06:51:09;10.23;;;8.27;;
35126;SDS011;21300;52.006;5.798;2022-08-20T06:53:41;9.25;;;7.45;;
35126;SDS011;21300;52.006;5.798;2022-08-20T06:56:07;8.55;;;6.22;;
35126;SDS011;21300;52.006;5.798;2022-08-20T06:58:34;9.20;;;6.60;;
35126;SDS011;21300;52.006;5.798;2022-08-20T07:01:05;9.00;;;6.95;;
35126;SDS011;21300;52.006;5.798;2022-08-20T07:03:37;8.57;;;6.57;;
35126;SDS011;21300;52.006;5.798;2022-08-20T07:06:10;19.15;;;5.30;;
35126;SDS011;21300;52.006;5.798;2022-08-20T07:08:35;11.30;;;6.80;;
35126;SDS011;21300;52.006;5.798;2022-08-20T07:11:01;8.43;;;6.10;;
35126;SDS011;21300;52.006;5.798;2022-08-20T07:13:27;6.65;;;4.93;;
35126;SDS011;21300;52.006;5.798;2022-08-20T07:15:53;7.38;;;4.88;;
35126;SDS011;21300;52.006;5.798;2022-08-20T07:18:19;8.23;;;4.65;;
35126;SDS011;21300;52.006;5.798;2022-08-20T07:20:46;8.20;;;4.65;;
35126;SDS011;21300;52.006;5.798;2022-08-20T07:23:12;7.45;;;4.28;;
35126;SDS011;21300;52.006;5.798;2022-08-20T07:25:39;6.15;;;3.65;;
35126;SDS011;21300;52.006;5.798;2022-08-20T07:28:11;7.65;;;3.65;;
35126;SDS011;21300;52.006;5.798;2022-08-20T07:30:49;8.27;;;4.03;;
35126;SDS011;21300;52.006;5.798;2022-08-20T07:33:35;6.35;;;3.00;;
35126;SDS011;21300;52.006;5.798;2022-08-20T07:36:04;7.40;;;2.55;;
35126;SDS011;21300;52.006;5.798;2022-08-20T07:38:30;6.60;;;2.85;;
35126;SDS011;21300;52.006;5.798;2022-08-20T07:40:59;11.15;;;3.03;;
35126;SDS011;21300;52.006;5.798;2022-08-20T07:43:34;6.32;;;2.35;;
35126;SDS011;21300;52.006;5.798;2022-08-20T07:46:03;9.85;;;3.05;;
35126;SDS011;21300;52.006;5.798;2022-08-20T07:48:34;8.63;;;2.78;;
35126;SDS011;21300;52.006;5.798;2022-08-20T07:51:06;7.47;;;3.22;;
35126;SDS011;21300;52.006;5.798;2022-08-20T07:53:43;10.57;;;2.58;;
35126;SDS011;21300;52.006;5.798;2022-08-20T07:56:19;8.70;;;2.80;;
35126;SDS011;21300;52.006;5.798;2022-08-20T07:58:56;6.95;;;2.35;;
35126;SDS011;21300;52.006;5.798;2022-08-20T08:01:26;9.48;;;2.90;;
35126;SDS011;21300;52.006;5.798;2022-08-20T08:03:54;9.23;;;2.92;;
35126;SDS011;21300;52.006;5.798;2022-08-20T08:06:22;12.07;;;3.20;;
35126;SDS011;21300;52.006;5.798;2022-08-20T08:08:49;9.50;;;2.67;;
35126;SDS011;21300;52.006;5.798;2022-08-20T08:11:19;8.88;;;2.40;;
35126;SDS011;21300;52.006;5.798;2022-08-20T08:13:47;8.27;;;2.97;;
35126;SDS011;21300;52.006;5.798;2022-08-20T08:16:14;9.73;;;3.03;;
35126;SDS011;21300;52.006;5.798;2022-08-20T08:18:47;11.80;;;3.33;;
35126;SDS011;21300;52.006;5.798;2022-08-20T08:21:20;10.73;;;3.38;;
35126;SDS011;21300;52.006;5.798;2022-08-20T08:23:54;9.10;;;2.92;;
35126;SDS011;21300;52.006;5.798;2022-08-20T08:26:30;13.30;;;3.75;;
35126;SDS011;21300;52.006;5.798;2022-08-20T08:28:59;7.90;;;2.90;;
35126;SDS011;21300;52.006;5.798;2022-08-20T08:31:26;9.80;;;3.55;;
35126;SDS011;21300;52.006;5.798;2022-08-20T08:33:53;9.75;;;2.90;;
35126;SDS011;21300;52.006;5.798;2022-08-20T08:36:20;8.13;;;2.67;;
35126;SDS011;21300;52.006;5.798;2022-08-20T08:38:46;11.18;;;3.53;;
35126;SDS011;21300;52.006;5.798;2022-08-20T08:41:20;9.13;;;2.70;;
35126;SDS011;21300;52.006;5.798;2022-08-20T08:43:53;10.80;;;2.97;;
35126;SDS011;21300;52.006;5.798;2022-08-20T08:46:35;13.30;;;3.35;;
35126;SDS011;21300;52.006;5.798;2022-08-20T08:49:05;9.85;;;3.33;;
35126;SDS011;21300;52.006;5.798;2022-08-20T08:54:49;12.63;;;3.88;;
35126;SDS011;21300;52.006;5.798;2022-08-20T08:57:18;7.43;;;3.05;;
35126;SDS011;21300;52.006;5.798;2022-08-20T08:59:52;13.48;;;3.47;;
35126;SDS011;21300;52.006;5.798;2022-08-20T09:02:33;12.77;;;3.88;;
35126;SDS011;21300;52.006;5.798;2022-08-20T09:05:12;8.35;;;3.30;;
35126;SDS011;21300;52.006;5.798;2022-08-20T09:07:48;10.00;;;3.95;;
35126;SDS011;21300;52.006;5.798;2022-08-20T09:10:25;11.20;;;4.10;;
35126;SDS011;21300;52.006;5.798;2022-08-20T09:15:19;10.43;;;3.08;;
35126;SDS011;21300;52.006;5.798;2022-08-20T09:17:46;6.43;;;2.45;;
35126;SDS011;21300;52.006;5.798;2022-08-20T09:20:11;8.07;;;2.80;;
35126;SDS011;21300;52.006;5.798;2022-08-20T09:22:43;11.10;;;3.15;;
35126;SDS011;21300;52.006;5.798;2022-08-20T09:25:12;8.93;;;2.63;;
35126;SDS011;21300;52.006;5.798;2022-08-20T09:27:38;8.20;;;2.83;;
35126;SDS011;21300;52.006;5.798;2022-08-20T09:30:26;9.90;;;3.25;;
35126;SDS011;21300;52.006;5.798;2022-08-20T09:32:52;12.65;;;3.17;;
35126;SDS011;21300;52.006;5.798;2022-08-20T09:35:24;6.78;;;2.58;;
35126;SDS011;21300;52.006;5.798;2022-08-20T09:37:50;9.23;;;2.10;;
35126;SDS011;21300;52.006;5.798;2022-08-20T09:40:20;7.43;;;2.13;;
35126;SDS011;21300;52.006;5.798;2022-08-20T09:42:50;8.82;;;2.35;;
35126;SDS011;21300;52.006;5.798;2022-08-20T09:45:16;10.07;;;3.05;;
35126;SDS011;21300;52.006;5.798;2022-08-20T09:47:49;10.05;;;2.60;;
35126;SDS011;21300;52.006;5.798;2022-08-20T09:50:24;8.98;;;2.22;;
35126;SDS011;21300;52.006;5.798;2022-08-20T09:52:52;10.15;;;2.58;;
35126;SDS011;21300;52.006;5.798;2022-08-20T09:55:21;10.73;;;2.40;;
35126;SDS011;21300;52.006;5.798;2022-08-20T09:58:18;9.52;;;2.10;;
35126;SDS011;21300;52.006;5.798;2022-08-20T10:00:51;7.25;;;2.30;;
35126;SDS011;21300;52.006;5.798;2022-08-20T10:03:17;14.32;;;2.53;;
35126;SDS011;21300;52.006;5.798;2022-08-20T10:05:43;8.85;;;2.08;;
35126;SDS011;21300;52.006;5.798;2022-08-20T10:08:10;7.32;;;1.58;;
35126;SDS011;21300;52.006;5.798;2022-08-20T10:10:36;8.43;;;2.13;;
35126;SDS011;21300;52.006;5.798;2022-08-20T10:13:02;7.93;;;2.35;;
35126;SDS011;21300;52.006;5.798;2022-08-20T10:15:28;7.65;;;1.70;;
35126;SDS011;21300;52.006;5.798;2022-08-20T10:17:54;5.43;;;1.45;;
35126;SDS011;21300;52.006;5.798;2022-08-20T10:20:21;12.05;;;2.22;;
35126;SDS011;21300;52.006;5.798;2022-08-20T10:22:48;7.47;;;2.17;;
35126;SDS011;21300;52.006;5.798;2022-08-20T10:25:14;9.30;;;1.70;;
35126;SDS011;21300;52.006;5.798;2022-08-20T10:27:41;7.10;;;1.63;;
35126;SDS011;21300;52.006;5.798;2022-08-20T10:30:07;8.90;;;1.73;;
35126;SDS011;21300;52.006;5.798;2022-08-20T10:32:33;7.93;;;1.80;;
35126;SDS011;21300;52.006;5.798;2022-08-20T10:34:59;8.32;;;1.80;;
35126;SDS011;21300;52.006;5.798;2022-08-20T10:37:25;9.82;;;1.88;;
35126;SDS011;21300;52.006;5.798;2022-08-20T10:39:51;7.05;;;1.80;;
35126;SDS011;21300;52.006;5.798;2022-08-20T10:42:17;8.45;;;1.52;;
35126;SDS011;21300;52.006;5.798;2022-08-20T10:44:43;10.30;;;1.67;;
35126;SDS011;21300;52.006;5.798;2022-08-20T10:47:42;15.30;;;2.00;;
35126;SDS011;21300;52.006;5.798;2022-08-20T10:50:01;8.68;;;2.28;;
35126;SDS011;21300;52.006;5.798;2022-08-20T10:52:30;8.88;;;2.00;;
35126;SDS011;21300;52.006;5.798;2022-08-20T10:54:56;5.88;;;1.88;;
35126;SDS011;21300;52.006;5.798;2022-08-20T10:57:23;7.80;;;1.70;;
35126;SDS011;21300;52.006;5.798;2022-08-20T10:59:51;6.35;;;1.88;;
35126;SDS011;21300;52.006;5.798;2022-08-20T11:02:18;6.95;;;1.67;;
35126;SDS011;21300;52.006;5.798;2022-08-20T11:04:44;6.90;;;1.80;;
35126;SDS011;21300;52.006;5.798;2022-08-20T11:07:18;11.77;;;2.05;;
35126;SDS011;21300;52.006;5.798;2022-08-20T11:09:52;6.45;;;1.83;;
35126;SDS011;21300;52.006;5.798;2022-08-20T11:12:19;8.18;;;1.48;;
35126;SDS011;21300;52.006;5.798;2022-08-20T11:14:46;9.13;;;1.70;;
35126;SDS011;21300;52.006;5.798;2022-08-20T11:17:12;6.07;;;1.65;;
35126;SDS011;21300;52.006;5.798;2022-08-20T11:19:42;6.45;;;1.42;;
35126;SDS011;21300;52.006;5.798;2022-08-20T11:22:09;7.00;;;2.20;;
35126;SDS011;21300;52.006;5.798;2022-08-20T11:24:35;7.82;;;1.73;;
35126;SDS011;21300;52.006;5.798;2022-08-20T11:27:02;7.05;;;1.60;;
35126;SDS011;21300;52.006;5.798;2022-08-20T11:29:31;6.28;;;1.80;;
35126;SDS011;21300;52.006;5.798;2022-08-20T11:31:58;9.68;;;1.83;;
35126;SDS011;21300;52.006;5.798;2022-08-20T11:34:23;8.65;;;2.08;;
35126;SDS011;21300;52.006;5.798;2022-08-20T11:36:49;10.02;;;1.95;;
35126;SDS011;21300;52.006;5.798;2022-08-20T11:39:16;8.10;;;1.70;;
35126;SDS011;21300;52.006;5.798;2022-08-20T11:41:42;6.63;;;1.60;;
35126;SDS011;21300;52.006;5.798;2022-08-20T11:44:08;5.10;;;1.40;;
35126;SDS011;21300;52.006;5.798;2022-08-20T11:46:36;6.47;;;1.50;;
35126;SDS011;21300;52.006;5.798;2022-08-20T11:49:20;8.35;;;1.50;;
35126;SDS011;21300;52.006;5.798;2022-08-20T11:51:45;8.25;;;2.00;;
35126;SDS011;21300;52.006;5.798;2022-08-20T11:54:11;5.43;;;1.60;;
35126;SDS011;21300;52.006;5.798;2022-08-20T11:56:36;5.20;;;1.55;;
35126;SDS011;21300;52.006;5.798;2022-08-20T11:59:02;7.70;;;1.80;;
35126;SDS011;21300;52.006;5.798;2022-08-20T12:01:28;5.72;;;1.25;;
35126;SDS011;21300;52.006;5.798;2022-08-20T12:03:53;6.88;;;2.03;;
35126;SDS011;21300;52.006;5.798;2022-08-20T12:06:19;6.50;;;1.58;;
35126;SDS011;21300;52.006;5.798;2022-08-20T12:08:44;8.75;;;1.67;;
35126;SDS011;21300;52.006;5.798;2022-08-20T12:11:10;6.53;;;1.60;;
35126;SDS011;21300;52.006;5.798;2022-08-20T12:13:36;7.57;;;1.92;;
35126;SDS011;21300;52.006;5.798;2022-08-20T12:16:02;11.63;;;1.80;;
35126;SDS011;21300;52.006;5.798;2022-08-20T12:18:29;9.15;;;1.92;;
35126;SDS011;21300;52.006;5.798;2022-08-20T12:20:55;6.57;;;1.48;;
35126;SDS011;21300;52.006;5.798;2022-08-20T12:23:21;6.43;;;1.80;;
35126;SDS011;21300;52.006;5.798;2022-08-20T12:25:47;11.15;;;1.85;;
35126;SDS011;21300;52.006;5.798;2022-08-20T12:28:13;7.90;;;1.67;;
35126;SDS011;21300;52.006;5.798;2022-08-20T12:30:39;9.13;;;2.00;;
35126;SDS011;21300;52.006;5.798;2022-08-20T12:33:05;9.40;;;2.22;;
35126;SDS011;21300;52.006;5.798;2022-08-20T12:35:30;6.40;;;1.65;;
35126;SDS011;21300;52.006;5.798;2022-08-20T12:37:56;8.50;;;1.52;;
35126;SDS011;21300;52.006;5.798;2022-08-20T12:40:24;8.30;;;2.00;;
35126;SDS011;21300;52.006;5.798;2022-08-20T12:42:51;7.78;;;1.63;;
35126;SDS011;21300;52.006;5.798;2022-08-20T12:45:18;7.07;;;1.98;;
35126;SDS011;21300;52.006;5.798;2022-08-20T12:47:44;6.35;;;1.95;;
35126;SDS011;21300;52.006;5.798;2022-08-20T12:50:13;7.70;;;2.10;;
35126;SDS011;21300;52.006;5.798;2022-08-20T12:52:49;6.72;;;1.67;;
35126;SDS011;21300;52.006;5.798;2022-08-20T12:55:15;5.97;;;1.55;;
35126;SDS011;21300;52.006;5.798;2022-08-20T12:57:47;8.60;;;1.80;;
35126;SDS011;21300;52.006;5.798;2022-08-20T13:00:17;4.93;;;1.63;;
35126;SDS011;21300;52.006;5.798;2022-08-20T13:02:46;7.32;;;2.00;;
35126;SDS011;21300;52.006;5.798;2022-08-20T13:05:19;7.50;;;2.08;;
35126;SDS011;21300;52.006;5.798;2022-08-20T13:07:45;7.43;;;1.65;;
35126;SDS011;21300;52.006;5.798;2022-08-20T13:10:16;8.63;;;2.05;;
35126;SDS011;21300;52.006;5.798;2022-08-20T13:12:47;7.95;;;1.90;;
35126;SDS011;21300;52.006;5.798;2022-08-20T13:15:13;8.20;;;2.25;;
35126;SDS011;21300;52.006;5.798;2022-08-20T13:17:39;8.05;;;1.88;;
35126;SDS011;21300;52.006;5.798;2022-08-20T13:20:09;6.57;;;1.60;;
35126;SDS011;21300;52.006;5.798;2022-08-20T13:22:37;6.63;;;1.95;;
35126;SDS011;21300;52.006;5.798;2022-08-20T13:25:03;9.52;;;2.50;;
35126;SDS011;21300;52.006;5.798;2022-08-20T13:27:30;7.60;;;1.98;;
35126;SDS011;21300;52.006;5.798;2022-08-20T13:29:55;6.80;;;1.77;;
35126;SDS011;21300;52.006;5.798;2022-08-20T13:32:21;7.25;;;2.03;;
35126;SDS011;21300;52.006;5.798;2022-08-20T13:34:48;5.82;;;1.63;;
35126;SDS011;21300;52.006;5.798;2022-08-20T13:37:16;7.38;;;1.95;;
35126;SDS011;21300;52.006;5.798;2022-08-20T13:39:46;8.63;;;1.70;;
35126;SDS011;21300;52.006;5.798;2022-08-20T13:42:12;7.50;;;1.77;;
35126;SDS011;21300;52.006;5.798;2022-08-20T13:44:39;5.80;;;1.67;;
35126;SDS011;21300;52.006;5.798;2022-08-20T13:49:47;6.88;;;2.28;;
35126;SDS011;21300;52.006;5.798;2022-08-20T13:52:18;8.13;;;2.50;;
35126;SDS011;21300;52.006;5.798;2022-08-20T13:54:44;6.28;;;1.67;;
35126;SDS011;21300;52.006;5.798;2022-08-20T13:57:14;5.28;;;1.77;;
35126;SDS011;21300;52.006;5.798;2022-08-20T13:59:44;8.02;;;1.83;;
35126;SDS011;21300;52.006;5.798;2022-08-20T14:02:12;7.15;;;1.90;;
35126;SDS011;21300;52.006;5.798;2022-08-20T14:04:38;6.40;;;2.15;;
35126;SDS011;21300;52.006;5.798;2022-08-20T14:07:08;7.43;;;1.70;;
35126;SDS011;21300;52.006;5.798;2022-08-20T14:09:59;5.22;;;1.80;;
35126;SDS011;21300;52.006;5.798;2022-08-20T14:12:29;9.18;;;1.98;;
35126;SDS011;21300;52.006;5.798;2022-08-20T14:14:55;8.88;;;1.90;;
35126;SDS011;21300;52.006;5.798;2022-08-20T14:17:27;8.55;;;2.03;;
35126;SDS011;21300;52.006;5.798;2022-08-20T14:19:56;7.40;;;2.13;;
35126;SDS011;21300;52.006;5.798;2022-08-20T14:22:26;11.15;;;2.40;;
35126;SDS011;21300;52.006;5.798;2022-08-20T14:24:52;6.68;;;1.92;;
35126;SDS011;21300;52.006;5.798;2022-08-20T14:27:19;6.05;;;2.08;;
35126;SDS011;21300;52.006;5.798;2022-08-20T14:29:46;5.85;;;1.50;;
35126;SDS011;21300;52.006;5.798;2022-08-20T14:32:13;10.52;;;2.08;;
35126;SDS011;21300;52.006;5.798;2022-08-20T14:34:40;5.18;;;1.50;;
35126;SDS011;21300;52.006;5.798;2022-08-20T14:39:39;10.25;;;1.75;;
35126;SDS011;21300;52.006;5.798;2022-08-20T14:42:06;8.30;;;1.63;;
35126;SDS011;21300;52.006;5.798;2022-08-20T14:44:32;8.43;;;1.98;;
35126;SDS011;21300;52.006;5.798;2022-08-20T14:47:32;8.48;;;1.77;;
35126;SDS011;21300;52.006;5.798;2022-08-20T14:49:53;12.23;;;2.30;;
35126;SDS011;21300;52.006;5.798;2022-08-20T14:52:21;10.05;;;2.03;;
35126;SDS011;21300;52.006;5.798;2022-08-20T14:54:47;7.03;;;1.55;;
35126;SDS011;21300;52.006;5.798;2022-08-20T14:57:14;7.80;;;2.10;;
35126;SDS011;21300;52.006;5.798;2022-08-20T14:59:41;10.75;;;2.60;;
35126;SDS011;21300;52.006;5.798;2022-08-20T15:02:09;3.70;;;1.65;;
35126;SDS011;21300;52.006;5.798;2022-08-20T15:04:37;7.55;;;1.60;;
35126;SDS011;21300;52.006;5.798;2022-08-20T15:07:05;9.18;;;1.60;;
35126;SDS011;21300;52.006;5.798;2022-08-20T15:09:34;7.43;;;1.77;;
35126;SDS011;21300;52.006;5.798;2022-08-20T15:12:00;6.18;;;1.55;;